createdAt,value
2022-11-05T00:01:40.047Z,4.82
2022-11-05T00:07:00.917Z,4.63
2022-11-05T00:12:25.226Z,4.80
2022-11-05T00:17:27.852Z,4.80
2022-11-05T00:22:48.034Z,4.05
2022-11-05T00:27:54.188Z,4.75
2022-11-05T00:33:02.034Z,5.13
2022-11-05T00:38:04.721Z,4.97
2022-11-05T00:43:26.513Z,5.00
2022-11-05T00:48:58.136Z,4.43
2022-11-05T00:54:00.872Z,4.82
2022-11-05T00:59:05.229Z,4.22
2022-11-05T01:04:07.913Z,3.17
2022-11-05T01:09:10.591Z,4.78
2022-11-05T01:14:17.069Z,4.15
2022-11-05T01:19:19.796Z,4.28
2022-11-05T01:24:22.614Z,3.88
2022-11-05T01:29:26.662Z,4.30
2022-11-05T01:34:29.498Z,3.60
2022-11-05T01:39:32.188Z,4.32
2022-11-05T01:44:55.211Z,4.28
2022-11-05T01:50:01.287Z,4.43
2022-11-05T01:55:06.707Z,4.50
2022-11-05T02:00:12.416Z,3.95
2022-11-05T02:05:16.658Z,4.78
2022-11-05T02:10:20.015Z,3.17
2022-11-05T02:15:31.375Z,4.15
2022-11-05T02:20:40.739Z,3.83
2022-11-05T02:26:11.880Z,4.40
2022-11-05T02:31:27.692Z,4.45
2022-11-05T02:36:40.027Z,4.68
2022-11-05T02:41:50.281Z,4.95
2022-11-05T02:46:59.527Z,4.45
2022-11-05T02:52:06.169Z,5.13
2022-11-05T02:57:08.877Z,4.95
2022-11-05T03:02:13.203Z,5.15
2022-11-05T03:07:36.426Z,4.50
2022-11-05T03:12:46.078Z,4.63
2022-11-05T03:18:02.092Z,5.22
2022-11-05T03:23:12.131Z,5.25
2022-11-05T03:28:16.101Z,5.45
2022-11-05T03:33:23.270Z,4.50
2022-11-05T03:38:33.966Z,5.68
2022-11-05T03:43:41.713Z,6.07
2022-11-05T03:48:50.059Z,6.05
2022-11-05T03:53:58.706Z,6.35
2022-11-05T03:59:03.181Z,5.88
2022-11-05T04:09:28.815Z,7.53
2022-11-05T04:14:32.122Z,6.13
2022-11-05T04:19:54.264Z,6.28
2022-11-05T04:24:56.988Z,6.93
2022-11-05T04:30:17.001Z,6.47
2022-11-05T04:35:21.006Z,7.10
2022-11-05T04:40:24.229Z,6.28
2022-11-05T04:45:29.122Z,6.88
2022-11-05T04:50:34.253Z,6.70
2022-11-05T04:55:36.978Z,7.40
2022-11-05T05:00:39.698Z,7.43
2022-11-05T05:05:43.939Z,7.18
2022-11-05T05:10:46.617Z,7.63
2022-11-05T05:15:49.254Z,9.85
2022-11-05T05:21:10.976Z,9.23
2022-11-05T05:26:13.874Z,8.82
2022-11-05T05:31:16.512Z,8.80
2022-11-05T05:36:20.670Z,9.73
2022-11-05T05:41:23.392Z,7.65
2022-11-05T05:46:26.206Z,9.63
2022-11-05T05:51:31.338Z,7.25
2022-11-05T05:56:34.038Z,9.55
2022-11-05T06:01:37.091Z,9.25
2022-11-05T06:06:41.245Z,9.60
2022-11-05T06:11:43.976Z,7.22
2022-11-05T06:16:46.901Z,10.00
2022-11-05T06:21:51.275Z,10.07
2022-11-05T06:26:54.107Z,7.40
2022-11-05T06:31:56.800Z,10.57
2022-11-05T06:37:00.836Z,10.25
2022-11-05T06:42:17.769Z,11.30
2022-11-05T06:47:21.508Z,10.50
2022-11-05T06:52:27.139Z,10.85
2022-11-05T06:57:29.992Z,12.68
2022-11-05T07:02:40.227Z,11.85
2022-11-05T07:07:48.792Z,12.10
2022-11-05T07:13:02.510Z,12.15
2022-11-05T07:18:09.389Z,12.43
2022-11-05T07:23:15.720Z,12.50
2022-11-05T07:28:18.528Z,12.70
2022-11-05T07:33:21.194Z,12.88
2022-11-05T07:38:25.395Z,11.68
2022-11-05T07:43:28.305Z,10.02
2022-11-05T07:48:31.360Z,12.00
2022-11-05T07:53:42.509Z,12.75
2022-11-05T07:58:47.884Z,10.63
2022-11-05T08:03:52.096Z,10.77
2022-11-05T08:08:57.694Z,11.38
2022-11-05T08:14:00.516Z,8.88
2022-11-05T08:19:07.048Z,9.35
2022-11-05T08:24:11.606Z,10.52
2022-11-05T08:34:16.851Z,10.48
2022-11-05T08:39:20.852Z,9.13
2022-11-05T08:44:23.479Z,8.77
2022-11-05T08:49:26.193Z,8.32
2022-11-05T08:54:30.169Z,7.95
2022-11-05T08:59:32.780Z,6.40
2022-11-05T09:04:35.386Z,7.15
2022-11-05T09:09:39.410Z,6.07
2022-11-05T09:14:58.477Z,5.05
2022-11-05T09:20:17.393Z,4.60
2022-11-05T09:31:23.607Z,4.50
2022-11-05T09:36:32.792Z,5.13
2022-11-05T09:41:40.638Z,4.30
2022-11-05T09:46:46.908Z,4.18
2022-11-05T09:51:50.684Z,4.70
2022-11-05T09:56:56.628Z,5.33
2022-11-05T10:02:13.510Z,4.68
2022-11-05T10:07:36.577Z,4.45
2022-11-05T10:12:49.137Z,4.20
2022-11-05T10:18:03.670Z,4.05
2022-11-05T10:23:16.955Z,3.75
2022-11-05T10:28:31.240Z,3.70
2022-11-05T10:33:37.199Z,2.53
2022-11-05T10:38:43.818Z,2.40
2022-11-05T10:43:50.848Z,2.20
2022-11-05T10:49:05.221Z,2.28
2022-11-05T10:59:24.436Z,2.30
2022-11-05T11:04:33.611Z,2.58
2022-11-05T11:09:40.542Z,2.25
2022-11-05T11:15:11.722Z,2.30
2022-11-05T11:20:29.360Z,1.95
2022-11-05T11:25:39.235Z,1.77
2022-11-05T11:30:49.724Z,1.98
2022-11-05T11:35:52.723Z,1.63
2022-11-05T11:41:02.834Z,2.25
2022-11-05T11:46:16.131Z,2.50
2022-11-05T11:51:30.779Z,2.60
2022-11-05T11:56:45.225Z,3.15
2022-11-05T12:02:11.060Z,2.15
2022-11-05T12:07:24.817Z,2.40
2022-11-05T12:12:39.365Z,2.67
2022-11-05T12:17:58.412Z,2.72
2022-11-05T12:23:17.964Z,2.60
2022-11-05T12:29:04.844Z,2.33
2022-11-05T12:34:24.399Z,2.72
2022-11-05T12:39:44.948Z,2.42
2022-11-05T12:44:56.822Z,2.10
2022-11-05T12:50:22.723Z,1.88
2022-11-05T12:55:30.986Z,1.58
2022-11-05T13:00:54.388Z,2.08
2022-11-05T13:06:06.343Z,1.60
2022-11-05T13:11:21.301Z,1.45
2022-11-05T13:16:38.832Z,1.40
2022-11-05T13:21:53.775Z,1.75
2022-11-05T13:27:02.445Z,1.83
2022-11-05T13:32:27.061Z,1.17
2022-11-05T13:37:52.179Z,1.70
2022-11-05T13:43:11.053Z,1.40
2022-11-05T13:48:46.349Z,1.27
2022-11-05T13:54:20.646Z,1.63
2022-11-05T13:59:42.244Z,1.60
2022-11-05T14:05:00.935Z,1.20
2022-11-05T14:10:15.917Z,1.88
2022-11-05T14:15:28.256Z,1.90
2022-11-05T14:21:08.218Z,1.50
2022-11-05T14:26:20.515Z,1.38
2022-11-05T14:32:07.658Z,1.55
2022-11-05T14:37:15.578Z,1.58
2022-11-05T14:42:23.220Z,1.70
2022-11-05T14:47:30.679Z,1.98
2022-11-05T14:52:34.043Z,2.15
2022-11-05T14:58:21.725Z,3.40
2022-11-05T15:04:04.593Z,3.50
2022-11-05T15:09:35.066Z,4.13
2022-11-05T15:14:58.735Z,3.22
2022-11-05T15:20:11.921Z,6.15
2022-11-05T15:25:22.159Z,2.97
2022-11-05T15:30:25.888Z,2.75
2022-11-05T15:35:33.965Z,3.10
2022-11-05T15:40:36.867Z,2.72
2022-11-05T15:46:04.635Z,2.85
2022-11-05T15:51:10.765Z,4.32
2022-11-05T15:56:20.258Z,5.53
2022-11-05T16:01:27.989Z,6.65
2022-11-05T16:06:39.717Z,8.50
2022-11-05T16:11:42.649Z,9.20
2022-11-05T16:16:46.573Z,11.55
2022-11-05T16:21:55.928Z,14.38
2022-11-05T16:27:02.624Z,15.32
2022-11-05T16:32:14.976Z,15.70
2022-11-05T16:37:25.209Z,15.50
2022-11-05T16:42:40.241Z,16.63
2022-11-05T16:47:44.289Z,18.27
2022-11-05T16:52:59.873Z,14.88
2022-11-05T16:58:03.282Z,15.50
2022-11-05T17:03:12.954Z,16.10
2022-11-05T17:08:17.148Z,15.10
2022-11-05T17:13:21.389Z,12.63
2022-11-05T17:18:24.597Z,12.00
2022-11-05T17:23:30.467Z,14.60
2022-11-05T17:28:33.563Z,14.70
2022-11-05T17:33:36.484Z,13.70
2022-11-05T17:38:40.966Z,15.88
2022-11-05T17:43:44.038Z,12.50
2022-11-05T17:48:47.110Z,11.30
2022-11-05T17:53:51.217Z,11.45
2022-11-05T17:58:55.622Z,9.27
2022-11-05T18:04:01.252Z,12.02
2022-11-05T18:09:09.630Z,12.00
2022-11-05T18:14:13.178Z,10.48
2022-11-05T18:19:16.284Z,7.63
2022-11-05T18:24:20.485Z,10.70
2022-11-05T18:29:23.190Z,8.20
2022-11-05T18:34:25.832Z,9.43
2022-11-05T18:39:30.096Z,8.80
2022-11-05T18:44:38.765Z,7.25
2022-11-05T18:49:42.248Z,9.23
2022-11-05T18:54:46.347Z,10.52
2022-11-05T18:59:49.134Z,12.13
2022-11-05T19:05:21.984Z,14.90
2022-11-05T19:10:16.174Z,12.32
2022-11-05T19:15:19.031Z,9.02
2022-11-05T19:20:21.666Z,12.18
2022-11-05T19:25:25.751Z,11.93
2022-11-05T19:30:28.450Z,8.90
2022-11-05T19:35:31.080Z,11.65
2022-11-05T19:40:37.627Z,12.40
2022-11-05T19:45:45.456Z,10.50
2022-11-05T19:50:48.357Z,10.48
2022-11-05T19:55:52.418Z,11.80
2022-11-05T20:00:56.683Z,9.80
2022-11-05T20:06:03.538Z,9.32
2022-11-05T20:11:08.109Z,11.60
2022-11-05T20:21:22.544Z,14.68
2022-11-05T20:26:26.973Z,14.13
2022-11-05T20:31:30.225Z,10.48
2022-11-05T20:36:32.857Z,20.73
2022-11-05T20:41:36.960Z,13.98
2022-11-05T20:46:39.815Z,12.63
2022-11-05T20:51:42.629Z,11.60
2022-11-05T20:56:46.694Z,12.18
2022-11-05T21:01:51.052Z,9.02
2022-11-05T21:06:53.929Z,7.97
2022-11-05T21:12:13.352Z,10.00
2022-11-05T21:17:15.985Z,9.48
2022-11-05T21:22:18.965Z,10.63
2022-11-05T21:27:22.996Z,11.45
2022-11-05T21:32:25.629Z,11.40
2022-11-05T21:37:28.637Z,10.48
2022-11-05T21:42:32.617Z,11.30
2022-11-05T21:47:35.683Z,8.05
2022-11-05T21:52:55.610Z,14.13
2022-11-05T21:58:21.228Z,14.80
2022-11-05T22:03:24.045Z,12.75
2022-11-05T22:08:27.238Z,12.07
2022-11-05T22:13:31.239Z,10.88
2022-11-05T22:18:33.918Z,8.32
2022-11-05T22:23:36.493Z,10.70
2022-11-05T22:28:40.522Z,10.00
2022-11-05T22:33:43.296Z,8.95
2022-11-05T22:38:46.075Z,10.23
2022-11-05T22:43:50.303Z,10.57
2022-11-05T22:48:53.930Z,7.72
2022-11-05T22:53:56.720Z,9.63
2022-11-05T22:59:00.875Z,12.40
2022-11-05T23:04:03.486Z,9.65
2022-11-05T23:09:26.322Z,10.60
2022-11-05T23:14:30.479Z,11.93
2022-11-05T23:19:47.003Z,10.23
2022-11-05T23:24:49.651Z,10.93
2022-11-05T23:29:53.773Z,10.40
2022-11-05T23:34:57.849Z,8.88
2022-11-05T23:40:00.685Z,8.77
2022-11-05T23:45:22.833Z,9.85
2022-11-05T23:50:26.012Z,10.55
2022-11-05T23:55:28.675Z,10.27
